BAW16 YSSY-WSSS
Flight info
| Callsign | BAW16 |
|---|---|
| Flight time | N/A |
| Altitude | 40000 |
| Route | KADOM1 KADOM A576 PKS G222 SAPDA A585 PLB G579 SJ DCT |
| Aircraft | B789/H-SADE1E2E3FGHIJ1J3J4J5J6LM1M2OP2RWXYZ/LB1D1G1 |
Departure
| Time | N/A |
|---|---|
| Airport | Sydney Kingsford Smith International Airport (YSSY) |
Arrival
| Time | 2026-05-04 01:44 |
|---|---|
| Airport | Singapore Changi Airport (WSSS) |
| Time | Latitude | Longitude | Altitude | Speed | Heading |
|---|---|---|---|---|---|
| 2026-05-03 20:43 | -24.38371 | 129.94434 | 40178 ft | 424 kts | 306° |
| 2026-05-03 20:43 | -24.34553 | 129.89503 | 40174 ft | 424 kts | 306° |
| 2026-05-03 20:44 | -24.30731 | 129.84572 | 40172 ft | 424 kts | 306° |
| 2026-05-03 20:44 | -24.26913 | 129.79652 | 40175 ft | 424 kts | 306° |
| 2026-05-03 20:45 | -24.23091 | 129.74731 | 40171 ft | 423 kts | 306° |
| 2026-05-03 20:45 | -24.19275 | 129.69823 | 40173 ft | 423 kts | 306° |
| 2026-05-03 20:46 | -24.15456 | 129.64916 | 40168 ft | 423 kts | 306° |
| 2026-05-03 20:46 | -24.11635 | 129.60011 | 40169 ft | 423 kts | 306° |
| 2026-05-03 20:47 | -24.07811 | 129.55107 | 40171 ft | 423 kts | 306° |
| 2026-05-03 20:47 | -24.04012 | 129.50241 | 40164 ft | 423 kts | 306° |
| 2026-05-03 20:48 | -24.00187 | 129.45346 | 40163 ft | 424 kts | 306° |
| 2026-05-03 20:48 | -23.96355 | 129.40446 | 40159 ft | 425 kts | 306° |
| 2026-05-03 20:49 | -23.92514 | 129.35541 | 40161 ft | 424 kts | 306° |
| 2026-05-03 20:49 | -23.88677 | 129.30646 | 40156 ft | 424 kts | 306° |
| 2026-05-03 20:50 | -23.84838 | 129.25752 | 40159 ft | 424 kts | 306° |
| 2026-05-03 20:50 | -23.80995 | 129.20859 | 40154 ft | 425 kts | 306° |
| 2026-05-03 20:51 | -23.77146 | 129.15961 | 40153 ft | 425 kts | 306° |
| 2026-05-03 20:51 | -23.73297 | 129.11071 | 40151 ft | 424 kts | 306° |
| 2026-05-03 20:52 | -23.69450 | 129.06185 | 40148 ft | 425 kts | 306° |
| 2026-05-03 20:52 | -23.65600 | 129.01303 | 40148 ft | 424 kts | 306° |
| 2026-05-03 20:53 | -23.61747 | 128.96421 | 40149 ft | 425 kts | 306° |
| 2026-05-03 20:53 | -23.57892 | 128.91541 | 40145 ft | 425 kts | 306° |
| 2026-05-03 20:54 | -23.54025 | 128.86651 | 40147 ft | 425 kts | 306° |
| 2026-05-03 20:54 | -23.48258 | 128.79367 | 40146 ft | 425 kts | 306° |
| 2026-05-03 20:55 | -23.44399 | 128.74499 | 40144 ft | 425 kts | 306° |
| 2026-05-03 20:55 | -23.40535 | 128.69628 | 40141 ft | 425 kts | 306° |
| 2026-05-03 20:56 | -23.36671 | 128.64763 | 40142 ft | 424 kts | 306° |
| 2026-05-03 20:56 | -23.32808 | 128.59904 | 40140 ft | 425 kts | 306° |
| 2026-05-03 20:57 | -23.28941 | 128.55045 | 40135 ft | 424 kts | 306° |
| 2026-05-03 20:57 | -23.25072 | 128.50188 | 40140 ft | 425 kts | 306° |
| 2026-05-03 20:58 | -23.21197 | 128.45328 | 40136 ft | 425 kts | 306° |
| 2026-05-03 20:58 | -23.17320 | 128.40479 | 40134 ft | 425 kts | 306° |
| 2026-05-03 20:59 | -23.13466 | 128.35662 | 40137 ft | 425 kts | 306° |
| 2026-05-03 20:59 | -23.09587 | 128.30818 | 40138 ft | 425 kts | 306° |
| 2026-05-03 21:00 | -23.06989 | 128.27576 | 40137 ft | 425 kts | 306° |
| 2026-05-03 21:00 | -23.01817 | 128.21129 | 40145 ft | 425 kts | 306° |
| 2026-05-03 21:01 | -22.97927 | 128.16285 | 40137 ft | 426 kts | 306° |
| 2026-05-03 21:01 | -22.94038 | 128.11447 | 40134 ft | 425 kts | 306° |
| 2026-05-03 21:02 | -22.90141 | 128.06604 | 40133 ft | 426 kts | 306° |
| 2026-05-03 21:02 | -22.86905 | 128.02586 | 40132 ft | 426 kts | 306° |
| 2026-05-03 21:03 | -22.83015 | 127.97759 | 40133 ft | 425 kts | 306° |
| 2026-05-03 21:03 | -22.79116 | 127.92926 | 40132 ft | 426 kts | 306° |
| 2026-05-03 21:04 | -22.75210 | 127.88090 | 40128 ft | 426 kts | 306° |
| 2026-05-03 21:04 | -22.71307 | 127.83261 | 40127 ft | 426 kts | 306° |
| 2026-05-03 21:05 | -22.67397 | 127.78428 | 40127 ft | 427 kts | 306° |
| 2026-05-03 21:05 | -22.63486 | 127.73599 | 40129 ft | 427 kts | 306° |
| 2026-05-03 21:06 | -22.59562 | 127.68759 | 40131 ft | 427 kts | 306° |
| 2026-05-03 21:06 | -22.55664 | 127.63954 | 40129 ft | 428 kts | 306° |
| 2026-05-03 21:07 | -22.51730 | 127.59111 | 40126 ft | 428 kts | 306° |
| 2026-05-03 21:07 | -22.47800 | 127.54276 | 40130 ft | 428 kts | 306° |
| 2026-05-03 21:08 | -22.43874 | 127.49451 | 40132 ft | 427 kts | 306° |
| 2026-05-03 21:08 | -22.39950 | 127.44631 | 40126 ft | 428 kts | 306° |
| 2026-05-03 21:09 | -22.36015 | 127.39805 | 40121 ft | 428 kts | 306° |
| 2026-05-03 21:09 | -22.32083 | 127.34985 | 40122 ft | 427 kts | 306° |
| 2026-05-03 21:10 | -22.28156 | 127.30177 | 40125 ft | 427 kts | 306° |
| 2026-05-03 21:10 | -22.24225 | 127.25368 | 40122 ft | 427 kts | 306° |
| 2026-05-03 21:11 | -22.20290 | 127.20558 | 40125 ft | 428 kts | 306° |
| 2026-05-03 21:11 | -22.16347 | 127.15744 | 40121 ft | 428 kts | 306° |
| 2026-05-03 21:12 | -22.12398 | 127.10926 | 40118 ft | 429 kts | 306° |
| 2026-05-03 21:12 | -22.08441 | 127.06103 | 40119 ft | 429 kts | 306° |
| 2026-05-03 21:13 | -22.04486 | 127.01286 | 40119 ft | 429 kts | 306° |
| 2026-05-03 21:13 | -22.00534 | 126.96479 | 40135 ft | 428 kts | 306° |
| 2026-05-03 21:14 | -21.96580 | 126.91672 | 40133 ft | 429 kts | 306° |
| 2026-05-03 21:14 | -21.92648 | 126.86897 | 40126 ft | 429 kts | 306° |
| 2026-05-03 21:15 | -21.88688 | 126.82093 | 40118 ft | 429 kts | 306° |
| 2026-05-03 21:15 | -21.84726 | 126.77290 | 40120 ft | 429 kts | 306° |
| 2026-05-03 21:16 | -21.80759 | 126.72485 | 40115 ft | 429 kts | 306° |
| 2026-05-03 21:16 | -21.76797 | 126.67691 | 40114 ft | 429 kts | 306° |
| 2026-05-03 21:17 | -21.73503 | 126.63708 | 40114 ft | 428 kts | 306° |
| 2026-05-03 21:17 | -21.68875 | 126.58118 | 40115 ft | 429 kts | 306° |
| 2026-05-03 21:18 | -21.64905 | 126.53327 | 40116 ft | 430 kts | 306° |
| 2026-05-03 21:18 | -21.60922 | 126.48525 | 40111 ft | 430 kts | 306° |
| 2026-05-03 21:19 | -21.56935 | 126.43723 | 40110 ft | 431 kts | 306° |
| 2026-05-03 21:19 | -21.52946 | 126.38921 | 40112 ft | 431 kts | 306° |
| 2026-05-03 21:20 | -21.48954 | 126.34121 | 40108 ft | 431 kts | 306° |
| 2026-05-03 21:20 | -21.44962 | 126.29325 | 40108 ft | 431 kts | 306° |
| 2026-05-03 21:21 | -21.40972 | 126.24536 | 40111 ft | 430 kts | 306° |
| 2026-05-03 21:21 | -21.36981 | 126.19749 | 40109 ft | 430 kts | 306° |
| 2026-05-03 21:22 | -21.32982 | 126.14958 | 40109 ft | 432 kts | 306° |
| 2026-05-03 21:22 | -21.28998 | 126.10188 | 40103 ft | 432 kts | 306° |
| 2026-05-03 21:23 | -21.24986 | 126.05390 | 40108 ft | 432 kts | 306° |
| 2026-05-03 21:23 | -21.20970 | 126.00590 | 40107 ft | 432 kts | 306° |
| 2026-05-03 21:24 | -21.16956 | 125.95798 | 40106 ft | 432 kts | 305° |
| 2026-05-03 21:24 | -21.12946 | 125.91014 | 40105 ft | 431 kts | 305° |
| 2026-05-03 21:25 | -21.08941 | 125.86240 | 40102 ft | 431 kts | 305° |
| 2026-05-03 21:25 | -21.04922 | 125.81455 | 40102 ft | 433 kts | 305° |
| 2026-05-03 21:26 | -21.00890 | 125.76658 | 40098 ft | 434 kts | 305° |
| 2026-05-03 21:26 | -20.96854 | 125.71860 | 40099 ft | 433 kts | 305° |
| 2026-05-03 21:27 | -20.92849 | 125.67103 | 40099 ft | 433 kts | 305° |
| 2026-05-03 21:27 | -20.88830 | 125.62321 | 40100 ft | 432 kts | 305° |
| 2026-05-03 21:28 | -20.84818 | 125.57531 | 40101 ft | 433 kts | 305° |
| 2026-05-03 21:28 | -20.80792 | 125.52741 | 40105 ft | 433 kts | 305° |
| 2026-05-03 21:29 | -20.76765 | 125.47948 | 40103 ft | 434 kts | 305° |
| 2026-05-03 21:29 | -20.72731 | 125.43153 | 40095 ft | 434 kts | 305° |
| 2026-05-03 21:30 | -20.68700 | 125.38365 | 40093 ft | 434 kts | 305° |
| 2026-05-03 21:30 | -20.64667 | 125.33579 | 40094 ft | 434 kts | 305° |
| 2026-05-03 21:31 | -20.60629 | 125.28791 | 40089 ft | 434 kts | 305° |
| 2026-05-03 21:31 | -20.56584 | 125.23999 | 40090 ft | 435 kts | 305° |
| 2026-05-03 21:32 | -20.52536 | 125.19209 | 40090 ft | 434 kts | 305° |
| 2026-05-03 21:32 | -20.48490 | 125.14422 | 40093 ft | 435 kts | 305° |
| 2026-05-03 21:33 | -20.44430 | 125.09626 | 40092 ft | 436 kts | 305° |
| 2026-05-03 21:33 | -20.40367 | 125.04828 | 40098 ft | 437 kts | 305° |
| 2026-05-03 21:34 | -20.36319 | 125.00053 | 40086 ft | 437 kts | 305° |
| 2026-05-03 21:34 | -20.32237 | 124.95242 | 40083 ft | 438 kts | 305° |
| 2026-05-03 21:35 | -20.28148 | 124.90426 | 40088 ft | 439 kts | 305° |
| 2026-05-03 21:35 | -20.24049 | 124.85604 | 40082 ft | 439 kts | 305° |
| 2026-05-03 21:36 | -20.19946 | 124.80780 | 40079 ft | 440 kts | 305° |
| 2026-05-03 21:36 | -20.15832 | 124.75947 | 40090 ft | 441 kts | 305° |
| 2026-05-03 21:37 | -20.11712 | 124.71111 | 40095 ft | 441 kts | 305° |
| 2026-05-03 21:37 | -20.07582 | 124.66269 | 40088 ft | 442 kts | 305° |
| 2026-05-03 21:38 | -20.03452 | 124.61430 | 40084 ft | 442 kts | 305° |
| 2026-05-03 21:38 | -19.99312 | 124.56584 | 40082 ft | 443 kts | 305° |
| 2026-05-03 21:39 | -19.95167 | 124.51735 | 40082 ft | 443 kts | 305° |
| 2026-05-03 21:39 | -19.91025 | 124.46894 | 40081 ft | 443 kts | 305° |
| 2026-05-03 21:40 | -19.86908 | 124.42087 | 40075 ft | 443 kts | 305° |
| 2026-05-03 21:40 | -19.82755 | 124.37241 | 40074 ft | 444 kts | 305° |
| 2026-05-03 21:41 | -19.78594 | 124.32391 | 40073 ft | 444 kts | 305° |
| 2026-05-03 21:41 | -19.74430 | 124.27540 | 40074 ft | 445 kts | 305° |
| 2026-05-03 21:42 | -19.70253 | 124.22679 | 40072 ft | 446 kts | 305° |
| 2026-05-03 21:42 | -19.66074 | 124.17819 | 40071 ft | 446 kts | 306° |
| 2026-05-03 21:43 | -19.61895 | 124.12964 | 40070 ft | 445 kts | 306° |
| 2026-05-03 21:43 | -19.57720 | 124.08118 | 40068 ft | 444 kts | 306° |
| 2026-05-03 21:44 | -19.53555 | 124.03286 | 40066 ft | 444 kts | 306° |
| 2026-05-03 21:44 | -19.49385 | 123.98453 | 40068 ft | 445 kts | 306° |
| 2026-05-03 21:45 | -19.45196 | 123.93602 | 40070 ft | 447 kts | 306° |
| 2026-05-03 21:45 | -19.40996 | 123.88741 | 40069 ft | 448 kts | 306° |
| 2026-05-03 21:46 | -19.36786 | 123.83876 | 40071 ft | 448 kts | 306° |
| 2026-05-03 21:46 | -19.32574 | 123.79009 | 40065 ft | 448 kts | 306° |
| 2026-05-03 21:47 | -19.28358 | 123.74143 | 40067 ft | 449 kts | 306° |
| 2026-05-03 21:47 | -19.24139 | 123.69277 | 40065 ft | 449 kts | 306° |
| 2026-05-03 21:48 | -19.19916 | 123.64411 | 40066 ft | 449 kts | 306° |
| 2026-05-03 21:48 | -19.15687 | 123.59541 | 40068 ft | 450 kts | 306° |
| 2026-05-03 21:49 | -19.11473 | 123.54693 | 40064 ft | 451 kts | 306° |
| 2026-05-03 21:49 | -19.07219 | 123.49803 | 40070 ft | 452 kts | 306° |
| 2026-05-03 21:50 | -19.02960 | 123.44912 | 40059 ft | 452 kts | 306° |
| 2026-05-03 21:50 | -18.98673 | 123.39992 | 40063 ft | 452 kts | 306° |
| 2026-05-03 21:51 | -18.94413 | 123.35106 | 40061 ft | 453 kts | 306° |
| 2026-05-03 21:51 | -18.90125 | 123.30217 | 40059 ft | 454 kts | 307° |
| 2026-05-03 21:52 | -18.85820 | 123.25398 | 40061 ft | 454 kts | 307° |
| 2026-05-03 21:52 | -18.81510 | 123.20529 | 40049 ft | 454 kts | 307° |
| 2026-05-03 21:53 | -18.77889 | 123.16463 | 40054 ft | 454 kts | 307° |
| 2026-05-03 21:53 | -18.73572 | 123.11606 | 40051 ft | 454 kts | 307° |
| 2026-05-03 21:54 | -18.69240 | 123.06741 | 40051 ft | 455 kts | 307° |
| 2026-05-03 21:54 | -18.64904 | 123.01875 | 40047 ft | 455 kts | 307° |
| 2026-05-03 21:55 | -18.60567 | 122.97010 | 40044 ft | 455 kts | 307° |
| 2026-05-03 21:55 | -18.56227 | 122.92148 | 40059 ft | 455 kts | 307° |
| 2026-05-03 21:56 | -18.51890 | 122.87291 | 40054 ft | 455 kts | 307° |
| 2026-05-03 21:56 | -18.47553 | 122.82439 | 40053 ft | 455 kts | 307° |
| 2026-05-03 21:57 | -18.43212 | 122.77585 | 40042 ft | 455 kts | 307° |
| 2026-05-03 21:57 | -18.38867 | 122.72732 | 40037 ft | 455 kts | 307° |
| 2026-05-03 21:58 | -18.34518 | 122.67877 | 40033 ft | 456 kts | 307° |
| 2026-05-03 21:58 | -18.30167 | 122.63026 | 40030 ft | 456 kts | 307° |
| 2026-05-03 21:59 | -18.25805 | 122.58163 | 40031 ft | 457 kts | 307° |
| 2026-05-03 21:59 | -18.21431 | 122.53293 | 40028 ft | 458 kts | 307° |
| 2026-05-03 22:00 | -18.17050 | 122.48418 | 40021 ft | 459 kts | 307° |
| 2026-05-03 22:00 | -18.12653 | 122.43530 | 40024 ft | 460 kts | 307° |
| 2026-05-03 22:01 | -18.08256 | 122.38646 | 40019 ft | 460 kts | 307° |
| 2026-05-03 22:01 | -18.03888 | 122.33796 | 40016 ft | 460 kts | 307° |
| 2026-05-03 22:02 | -17.99479 | 122.28906 | 40005 ft | 461 kts | 307° |
| 2026-05-03 22:02 | -17.95170 | 122.23959 | 40028 ft | 454 kts | 300° |
| 2026-05-03 22:03 | -17.91975 | 122.18317 | 40033 ft | 449 kts | 293° |
| 2026-05-03 22:03 | -17.89015 | 122.12531 | 40029 ft | 450 kts | 293° |
| 2026-05-03 22:04 | -17.86059 | 122.06738 | 40027 ft | 450 kts | 293° |
| 2026-05-03 22:04 | -17.83098 | 122.00952 | 40027 ft | 450 kts | 293° |
| 2026-05-03 22:05 | -17.80137 | 121.95165 | 40030 ft | 450 kts | 293° |
| 2026-05-03 22:05 | -17.77169 | 121.89374 | 40025 ft | 450 kts | 293° |
| 2026-05-03 22:06 | -17.74201 | 121.83584 | 40025 ft | 451 kts | 293° |
| 2026-05-03 22:06 | -17.71228 | 121.77792 | 40023 ft | 451 kts | 293° |
| 2026-05-03 22:07 | -17.68252 | 121.71998 | 40015 ft | 451 kts | 293° |
| 2026-05-03 22:07 | -17.65277 | 121.66213 | 40016 ft | 451 kts | 293° |
| 2026-05-03 22:08 | -17.62301 | 121.60430 | 40014 ft | 450 kts | 293° |
| 2026-05-03 22:08 | -17.59325 | 121.54651 | 40011 ft | 450 kts | 293° |
| 2026-05-03 22:09 | -17.56368 | 121.48915 | 40013 ft | 451 kts | 293° |
| 2026-05-03 22:10 | -17.51888 | 121.40236 | 40011 ft | 451 kts | 294° |
| 2026-05-03 22:10 | -17.48902 | 121.34457 | 40011 ft | 451 kts | 294° |
| 2026-05-03 22:11 | -17.45916 | 121.28682 | 40012 ft | 451 kts | 294° |
| 2026-05-03 22:11 | -17.42925 | 121.22904 | 40001 ft | 451 kts | 294° |
| 2026-05-03 22:12 | -17.39939 | 121.17139 | 40000 ft | 450 kts | 294° |
| 2026-05-03 22:12 | -17.36953 | 121.11380 | 40016 ft | 450 kts | 294° |
| 2026-05-03 22:13 | -17.33963 | 121.05620 | 40013 ft | 450 kts | 294° |
| 2026-05-03 22:13 | -17.30971 | 120.99859 | 40013 ft | 451 kts | 294° |
| 2026-05-03 22:14 | -17.27976 | 120.94098 | 40012 ft | 451 kts | 294° |
| 2026-05-03 22:14 | -17.24981 | 120.88342 | 40010 ft | 450 kts | 294° |
| 2026-05-03 22:15 | -17.21990 | 120.82598 | 40006 ft | 450 kts | 294° |
| 2026-05-03 22:15 | -17.19017 | 120.76895 | 40004 ft | 449 kts | 294° |
| 2026-05-03 22:16 | -17.16023 | 120.71156 | 40004 ft | 450 kts | 294° |
| 2026-05-03 22:16 | -17.13027 | 120.65418 | 40002 ft | 449 kts | 294° |
| 2026-05-03 22:17 | -17.10032 | 120.59688 | 40000 ft | 449 kts | 294° |
| 2026-05-03 22:17 | -17.07033 | 120.53953 | 39999 ft | 450 kts | 294° |
| 2026-05-03 22:18 | -17.04033 | 120.48223 | 40000 ft | 449 kts | 294° |
| 2026-05-03 22:18 | -17.01030 | 120.42490 | 39995 ft | 450 kts | 294° |
| 2026-05-03 22:19 | -16.98026 | 120.36763 | 40000 ft | 450 kts | 294° |
| 2026-05-03 22:19 | -16.95021 | 120.31036 | 39996 ft | 449 kts | 294° |
| 2026-05-03 22:20 | -16.92015 | 120.25315 | 39996 ft | 449 kts | 294° |
| 2026-05-03 22:20 | -16.89011 | 120.19600 | 39994 ft | 449 kts | 294° |
| 2026-05-03 22:21 | -16.86006 | 120.13890 | 39995 ft | 448 kts | 294° |
| 2026-05-03 22:21 | -16.83006 | 120.08194 | 39995 ft | 448 kts | 294° |
| 2026-05-03 22:22 | -16.80025 | 120.02538 | 39991 ft | 447 kts | 294° |
| 2026-05-03 22:22 | -16.77026 | 119.96851 | 39996 ft | 447 kts | 295° |
| 2026-05-03 22:23 | -16.74022 | 119.91161 | 39994 ft | 448 kts | 295° |
| 2026-05-03 22:23 | -16.71014 | 119.85468 | 39994 ft | 448 kts | 295° |
| 2026-05-03 22:24 | -16.68001 | 119.79771 | 39992 ft | 448 kts | 295° |
| 2026-05-03 22:24 | -16.64987 | 119.74076 | 39992 ft | 448 kts | 295° |
| 2026-05-03 22:25 | -16.61971 | 119.68381 | 39993 ft | 449 kts | 295° |
| 2026-05-03 22:25 | -16.58951 | 119.62686 | 39994 ft | 449 kts | 295° |
| 2026-05-03 22:26 | -16.55929 | 119.56990 | 39990 ft | 449 kts | 295° |
| 2026-05-03 22:26 | -16.52906 | 119.51298 | 39991 ft | 449 kts | 295° |
| 2026-05-03 22:27 | -16.49879 | 119.45601 | 39991 ft | 449 kts | 295° |
| 2026-05-03 22:27 | -16.46853 | 119.39912 | 39988 ft | 448 kts | 295° |
| 2026-05-03 22:28 | -16.43849 | 119.34269 | 39986 ft | 448 kts | 295° |
| 2026-05-03 22:28 | -16.40826 | 119.28594 | 39984 ft | 448 kts | 295° |
| 2026-05-03 22:29 | -16.37805 | 119.22928 | 39988 ft | 447 kts | 295° |
| 2026-05-03 22:29 | -16.34786 | 119.17271 | 39987 ft | 447 kts | 295° |
| 2026-05-03 22:30 | -16.31763 | 119.11609 | 39983 ft | 447 kts | 295° |
| 2026-05-03 22:30 | -16.28736 | 119.05948 | 39988 ft | 447 kts | 295° |
| 2026-05-03 22:31 | -16.25710 | 119.00289 | 39990 ft | 448 kts | 295° |
| 2026-05-03 22:31 | -16.22673 | 118.94616 | 39993 ft | 449 kts | 295° |
| 2026-05-03 22:32 | -16.19634 | 118.88945 | 39995 ft | 449 kts | 295° |
| 2026-05-03 22:32 | -16.16594 | 118.83275 | 39993 ft | 449 kts | 295° |
| 2026-05-03 22:33 | -16.13552 | 118.77607 | 39993 ft | 449 kts | 295° |
| 2026-05-03 22:33 | -16.10508 | 118.71940 | 39989 ft | 449 kts | 295° |
| 2026-05-03 22:34 | -16.07458 | 118.66265 | 39989 ft | 450 kts | 295° |
| 2026-05-03 22:34 | -16.04424 | 118.60625 | 39988 ft | 450 kts | 295° |
| 2026-05-03 22:35 | -16.01370 | 118.54951 | 39988 ft | 450 kts | 295° |
| 2026-05-03 22:35 | -15.98312 | 118.49275 | 39989 ft | 450 kts | 295° |
| 2026-05-03 22:36 | -15.95249 | 118.43595 | 39988 ft | 450 kts | 295° |
| 2026-05-03 22:36 | -15.92187 | 118.37920 | 39991 ft | 451 kts | 295° |
| 2026-05-03 22:37 | -15.89118 | 118.32239 | 39986 ft | 450 kts | 295° |
| 2026-05-03 22:37 | -15.86058 | 118.26576 | 39987 ft | 449 kts | 295° |
| 2026-05-03 22:38 | -15.83015 | 118.20949 | 39984 ft | 449 kts | 295° |
| 2026-05-03 22:38 | -15.79931 | 118.15254 | 39987 ft | 450 kts | 295° |
| 2026-05-03 22:39 | -15.76882 | 118.09625 | 39989 ft | 451 kts | 295° |
| 2026-05-03 22:39 | -15.73803 | 118.03947 | 39992 ft | 455 kts | 295° |
| 2026-05-03 22:40 | -15.70678 | 117.98186 | 39994 ft | 458 kts | 295° |
| 2026-05-03 22:40 | -15.67551 | 117.92429 | 39988 ft | 458 kts | 295° |
| 2026-05-03 22:41 | -15.64419 | 117.86666 | 39985 ft | 458 kts | 296° |
| 2026-05-03 22:41 | -15.61290 | 117.80913 | 39988 ft | 458 kts | 296° |
| 2026-05-03 22:42 | -15.58154 | 117.75151 | 39984 ft | 459 kts | 296° |
| 2026-05-03 22:42 | -15.55013 | 117.69384 | 39988 ft | 460 kts | 296° |
| 2026-05-03 22:43 | -15.51866 | 117.63613 | 39982 ft | 459 kts | 296° |
| 2026-05-03 22:43 | -15.48743 | 117.57888 | 39981 ft | 459 kts | 296° |
| 2026-05-03 22:44 | -15.45596 | 117.52123 | 39986 ft | 460 kts | 296° |
| 2026-05-03 22:44 | -15.42441 | 117.46351 | 39984 ft | 460 kts | 296° |
| 2026-05-03 22:45 | -15.39287 | 117.40584 | 39978 ft | 459 kts | 296° |
| 2026-05-03 22:45 | -15.36666 | 117.35794 | 39983 ft | 460 kts | 296° |
| 2026-05-03 22:46 | -15.33511 | 117.30034 | 39984 ft | 460 kts | 296° |
| 2026-05-03 22:46 | -15.29841 | 117.23337 | 39983 ft | 460 kts | 296° |
| 2026-05-03 22:47 | -15.27189 | 117.18502 | 39979 ft | 461 kts | 296° |
| 2026-05-03 22:47 | -15.24048 | 117.12780 | 39982 ft | 460 kts | 296° |
| 2026-05-03 22:48 | -15.20891 | 117.07033 | 39983 ft | 458 kts | 296° |
| 2026-05-03 22:48 | -15.17741 | 117.01302 | 39981 ft | 458 kts | 296° |
| 2026-05-03 22:49 | -15.14593 | 116.95572 | 39979 ft | 458 kts | 296° |
| 2026-05-03 22:49 | -15.11440 | 116.89840 | 39978 ft | 458 kts | 296° |
| 2026-05-03 22:50 | -15.08280 | 116.84100 | 39979 ft | 459 kts | 296° |
| 2026-05-03 22:50 | -15.05119 | 116.78362 | 39981 ft | 459 kts | 296° |
| 2026-05-03 22:51 | -15.01955 | 116.72623 | 39981 ft | 459 kts | 296° |
| 2026-05-03 22:51 | -14.98790 | 116.66885 | 39979 ft | 459 kts | 296° |
| 2026-05-03 22:52 | -14.95619 | 116.61142 | 39980 ft | 460 kts | 296° |
| 2026-05-03 22:52 | -14.92465 | 116.55434 | 39983 ft | 460 kts | 296° |
| 2026-05-03 22:53 | -14.89287 | 116.49688 | 39979 ft | 460 kts | 296° |
| 2026-05-03 22:53 | -14.86108 | 116.43942 | 39978 ft | 461 kts | 296° |
| 2026-05-03 22:54 | -14.82923 | 116.38190 | 39979 ft | 461 kts | 296° |
| 2026-05-03 22:54 | -14.79737 | 116.32442 | 39979 ft | 461 kts | 296° |
| 2026-05-03 22:55 | -14.76553 | 116.26699 | 39978 ft | 460 kts | 296° |
| 2026-05-03 22:55 | -14.73373 | 116.20970 | 39981 ft | 460 kts | 296° |
| 2026-05-03 22:56 | -14.70190 | 116.15239 | 39978 ft | 459 kts | 296° |
| 2026-05-03 22:56 | -14.67015 | 116.09527 | 39978 ft | 459 kts | 296° |
| 2026-05-03 22:57 | -14.63831 | 116.03802 | 39978 ft | 460 kts | 296° |
| 2026-05-03 22:57 | -14.60645 | 115.98079 | 39976 ft | 460 kts | 296° |
| 2026-05-03 22:58 | -14.57459 | 115.92359 | 39974 ft | 459 kts | 296° |
| 2026-05-03 22:58 | -14.54277 | 115.86650 | 39972 ft | 459 kts | 296° |
| 2026-05-03 22:59 | -14.51087 | 115.80932 | 39972 ft | 460 kts | 296° |
| 2026-05-03 22:59 | -14.47917 | 115.75254 | 39971 ft | 459 kts | 296° |
| 2026-05-03 23:00 | -14.44729 | 115.69546 | 39974 ft | 459 kts | 296° |
| 2026-05-03 23:00 | -14.41537 | 115.63836 | 39977 ft | 460 kts | 297° |
| 2026-05-03 23:01 | -14.38335 | 115.58113 | 39979 ft | 461 kts | 297° |
| 2026-05-03 23:01 | -14.35131 | 115.52391 | 39980 ft | 461 kts | 297° |
| 2026-05-03 23:02 | -14.31924 | 115.46664 | 39981 ft | 461 kts | 297° |
| 2026-05-03 23:02 | -14.28713 | 115.40938 | 39978 ft | 461 kts | 297° |
| 2026-05-03 23:03 | -14.25509 | 115.35228 | 39975 ft | 460 kts | 297° |
| 2026-05-03 23:03 | -14.22310 | 115.29529 | 39976 ft | 459 kts | 297° |
| 2026-05-03 23:04 | -14.19106 | 115.23827 | 39977 ft | 460 kts | 297° |
| 2026-05-03 23:04 | -14.15893 | 115.18112 | 39984 ft | 461 kts | 297° |
| 2026-05-03 23:05 | -14.12676 | 115.12395 | 39982 ft | 461 kts | 297° |
| 2026-05-03 23:05 | -14.09455 | 115.06674 | 39990 ft | 462 kts | 297° |
| 2026-05-03 23:06 | -14.06229 | 115.00949 | 39995 ft | 462 kts | 297° |
| 2026-05-03 23:06 | -14.03003 | 114.95229 | 39995 ft | 462 kts | 297° |
| 2026-05-03 23:07 | -13.99774 | 114.89506 | 39995 ft | 462 kts | 297° |
| 2026-05-03 23:07 | -13.96544 | 114.83786 | 39995 ft | 462 kts | 297° |
| 2026-05-03 23:08 | -13.93331 | 114.78101 | 39983 ft | 462 kts | 297° |
| 2026-05-03 23:08 | -13.90104 | 114.72394 | 39992 ft | 461 kts | 297° |
| 2026-05-03 23:09 | -13.86874 | 114.66685 | 39987 ft | 462 kts | 297° |
| 2026-05-03 23:09 | -13.83643 | 114.60980 | 39985 ft | 462 kts | 297° |
| 2026-05-03 23:10 | -13.80408 | 114.55270 | 39980 ft | 462 kts | 297° |
| 2026-05-03 23:10 | -13.77170 | 114.49561 | 39983 ft | 462 kts | 297° |
| 2026-05-03 23:11 | -13.73926 | 114.43844 | 39985 ft | 462 kts | 297° |
| 2026-05-03 23:11 | -13.70686 | 114.38137 | 39981 ft | 462 kts | 297° |
| 2026-05-03 23:12 | -13.67441 | 114.32426 | 39982 ft | 462 kts | 297° |
| 2026-05-03 23:12 | -13.64217 | 114.26756 | 39980 ft | 463 kts | 297° |
| 2026-05-03 23:13 | -13.60969 | 114.21048 | 39976 ft | 462 kts | 297° |
| 2026-05-03 23:13 | -13.57718 | 114.15337 | 39975 ft | 463 kts | 297° |
| 2026-05-03 23:14 | -13.54461 | 114.09621 | 39979 ft | 464 kts | 297° |
| 2026-05-03 23:14 | -13.51197 | 114.03894 | 39982 ft | 465 kts | 297° |
| 2026-05-03 23:15 | -13.47948 | 113.98200 | 39984 ft | 465 kts | 297° |
| 2026-05-03 23:15 | -13.44674 | 113.92464 | 39980 ft | 466 kts | 297° |
| 2026-05-03 23:16 | -13.41399 | 113.86732 | 39979 ft | 465 kts | 297° |
| 2026-05-03 23:16 | -13.38123 | 113.81001 | 39978 ft | 465 kts | 297° |
| 2026-05-03 23:17 | -13.34845 | 113.75271 | 39976 ft | 465 kts | 297° |
| 2026-05-03 23:17 | -13.31564 | 113.69537 | 39977 ft | 466 kts | 297° |
| 2026-05-03 23:18 | -13.28275 | 113.63796 | 39977 ft | 466 kts | 297° |
| 2026-05-03 23:18 | -13.24985 | 113.58057 | 39970 ft | 466 kts | 297° |
| 2026-05-03 23:19 | -13.21719 | 113.52362 | 39979 ft | 466 kts | 297° |
| 2026-05-03 23:19 | -13.18425 | 113.46622 | 39965 ft | 466 kts | 297° |
| 2026-05-03 23:20 | -13.15138 | 113.40898 | 39970 ft | 465 kts | 297° |
| 2026-05-03 23:20 | -13.11852 | 113.35181 | 39970 ft | 465 kts | 297° |
| 2026-05-03 23:21 | -13.08563 | 113.29460 | 39966 ft | 465 kts | 297° |
| 2026-05-03 23:21 | -13.05274 | 113.23745 | 39965 ft | 466 kts | 297° |
| 2026-05-03 23:22 | -13.00325 | 113.15151 | 39969 ft | 467 kts | 297° |
| 2026-05-03 23:22 | -12.97025 | 113.09424 | 39970 ft | 467 kts | 297° |
| 2026-05-03 23:23 | -12.93742 | 113.03732 | 39969 ft | 467 kts | 297° |
| 2026-05-03 23:23 | -12.90437 | 112.98005 | 39970 ft | 467 kts | 298° |
| 2026-05-03 23:24 | -12.87132 | 112.92283 | 39967 ft | 467 kts | 298° |
| 2026-05-03 23:24 | -12.83828 | 112.86565 | 39958 ft | 466 kts | 298° |
| 2026-05-03 23:25 | -12.80524 | 112.80850 | 39964 ft | 466 kts | 298° |
| 2026-05-03 23:25 | -12.77220 | 112.75139 | 39957 ft | 466 kts | 298° |
| 2026-05-03 23:26 | -12.73912 | 112.69425 | 39966 ft | 466 kts | 298° |
| 2026-05-03 23:26 | -12.70601 | 112.63709 | 39961 ft | 467 kts | 298° |
| 2026-05-03 23:27 | -12.67280 | 112.57979 | 39959 ft | 468 kts | 298° |
| 2026-05-03 23:27 | -12.63957 | 112.52250 | 39961 ft | 468 kts | 298° |
| 2026-05-03 23:28 | -12.60636 | 112.46529 | 39966 ft | 467 kts | 298° |
| 2026-05-03 23:28 | -12.57316 | 112.40811 | 39963 ft | 467 kts | 298° |
| 2026-05-03 23:29 | -12.53996 | 112.35099 | 39962 ft | 467 kts | 298° |
| 2026-05-03 23:29 | -12.50675 | 112.29387 | 39961 ft | 467 kts | 298° |
| 2026-05-03 23:30 | -12.47352 | 112.23676 | 39961 ft | 467 kts | 298° |
| 2026-05-03 23:30 | -12.44024 | 112.17960 | 39957 ft | 467 kts | 298° |
| 2026-05-03 23:31 | -12.40697 | 112.12249 | 39959 ft | 467 kts | 298° |
| 2026-05-03 23:31 | -12.37368 | 112.06538 | 39957 ft | 467 kts | 298° |
| 2026-05-03 23:32 | -12.34038 | 112.00828 | 39956 ft | 468 kts | 298° |
| 2026-05-03 23:32 | -12.30723 | 111.95148 | 39957 ft | 468 kts | 298° |
| 2026-05-03 23:33 | -12.27386 | 111.89434 | 39951 ft | 468 kts | 298° |
| 2026-05-03 23:33 | -12.24053 | 111.83729 | 39954 ft | 468 kts | 298° |
| 2026-05-03 23:34 | -12.20713 | 111.78017 | 39950 ft | 468 kts | 298° |
| 2026-05-03 23:34 | -12.17373 | 111.72308 | 39952 ft | 468 kts | 298° |
| 2026-05-03 23:35 | -12.14031 | 111.66600 | 39954 ft | 468 kts | 298° |
| 2026-05-03 23:35 | -12.10690 | 111.60896 | 39953 ft | 468 kts | 299° |
| 2026-05-03 23:36 | -12.07345 | 111.55189 | 39950 ft | 468 kts | 299° |
| 2026-05-03 23:36 | -12.04002 | 111.49488 | 39958 ft | 468 kts | 299° |
| 2026-05-03 23:37 | -12.00554 | 111.43832 | 39971 ft | 470 kts | 307° |
| 2026-05-03 23:37 | -11.95788 | 111.39224 | 39965 ft | 475 kts | 319° |
| 2026-05-03 23:38 | -11.90614 | 111.35020 | 39965 ft | 475 kts | 319° |
| 2026-05-03 23:38 | -11.85448 | 111.30807 | 39965 ft | 475 kts | 319° |
| 2026-05-03 23:39 | -11.80273 | 111.26593 | 39960 ft | 475 kts | 319° |
| 2026-05-03 23:39 | -11.75108 | 111.22391 | 39960 ft | 475 kts | 319° |
| 2026-05-03 23:40 | -11.70780 | 111.18869 | 39960 ft | 475 kts | 319° |
| 2026-05-03 23:40 | -11.65618 | 111.14673 | 39954 ft | 474 kts | 319° |
| 2026-05-03 23:41 | -11.60461 | 111.10481 | 39953 ft | 474 kts | 320° |
| 2026-05-03 23:41 | -11.55298 | 111.06288 | 39953 ft | 475 kts | 320° |
| 2026-05-03 23:42 | -11.50130 | 111.02091 | 39955 ft | 476 kts | 320° |
| 2026-05-03 23:42 | -11.44947 | 110.97885 | 39957 ft | 477 kts | 320° |
| 2026-05-03 23:43 | -11.39761 | 110.93679 | 39952 ft | 476 kts | 320° |
| 2026-05-03 23:43 | -11.34621 | 110.89512 | 39949 ft | 475 kts | 320° |
| 2026-05-03 23:44 | -11.29461 | 110.85330 | 39945 ft | 474 kts | 320° |
| 2026-05-03 23:44 | -11.24293 | 110.81144 | 39947 ft | 475 kts | 320° |
| 2026-05-03 23:45 | -11.19121 | 110.76957 | 39942 ft | 475 kts | 320° |
| 2026-05-03 23:45 | -11.13948 | 110.72771 | 39942 ft | 475 kts | 320° |
| 2026-05-03 23:46 | -11.08775 | 110.68586 | 39940 ft | 475 kts | 320° |
| 2026-05-03 23:46 | -11.03601 | 110.64404 | 39942 ft | 475 kts | 320° |
| 2026-05-03 23:47 | -10.98422 | 110.60219 | 39939 ft | 475 kts | 320° |
| 2026-05-03 23:47 | -10.93249 | 110.56040 | 39937 ft | 475 kts | 320° |
| 2026-05-03 23:48 | -10.88068 | 110.51858 | 39938 ft | 475 kts | 320° |
| 2026-05-03 23:48 | -10.82885 | 110.47675 | 39938 ft | 476 kts | 320° |
| 2026-05-03 23:49 | -10.77701 | 110.43494 | 39935 ft | 475 kts | 320° |
| 2026-05-03 23:49 | -10.72520 | 110.39316 | 39937 ft | 475 kts | 320° |
| 2026-05-03 23:50 | -10.67335 | 110.35138 | 39935 ft | 475 kts | 320° |
| 2026-05-03 23:50 | -10.62154 | 110.30965 | 39936 ft | 475 kts | 320° |
| 2026-05-03 23:51 | -10.56968 | 110.26789 | 39932 ft | 476 kts | 320° |
| 2026-05-03 23:51 | -10.51782 | 110.22616 | 39933 ft | 476 kts | 320° |
| 2026-05-03 23:52 | -10.46590 | 110.18438 | 39933 ft | 476 kts | 320° |
| 2026-05-03 23:52 | -10.41438 | 110.14297 | 39931 ft | 475 kts | 320° |
| 2026-05-03 23:53 | -10.36255 | 110.10130 | 39928 ft | 475 kts | 320° |
| 2026-05-03 23:53 | -10.31067 | 110.05963 | 39931 ft | 475 kts | 320° |
| 2026-05-03 23:54 | -10.25879 | 110.01796 | 39927 ft | 475 kts | 320° |
| 2026-05-03 23:54 | -10.20694 | 109.97634 | 39926 ft | 475 kts | 320° |
| 2026-05-03 23:55 | -10.15511 | 109.93476 | 39932 ft | 475 kts | 320° |
| 2026-05-03 23:55 | -10.10325 | 109.89316 | 39931 ft | 475 kts | 320° |
| 2026-05-03 23:56 | -10.05142 | 109.85162 | 39928 ft | 475 kts | 320° |
| 2026-05-03 23:56 | -9.99956 | 109.81005 | 39927 ft | 475 kts | 320° |
| 2026-05-03 23:57 | -9.94772 | 109.76853 | 39932 ft | 475 kts | 321° |
| 2026-05-03 23:57 | -9.89590 | 109.72703 | 39933 ft | 474 kts | 321° |
| 2026-05-03 23:58 | -9.84415 | 109.68562 | 39929 ft | 474 kts | 321° |
| 2026-05-03 23:58 | -9.79242 | 109.64423 | 39931 ft | 474 kts | 321° |
| 2026-05-03 23:59 | -9.74065 | 109.60284 | 39934 ft | 474 kts | 321° |
| 2026-05-03 23:59 | -9.68894 | 109.56150 | 39933 ft | 473 kts | 321° |
| 2026-05-04 00:00 | -9.63723 | 109.52017 | 39929 ft | 473 kts | 321° |
| 2026-05-04 00:00 | -9.58550 | 109.47887 | 39928 ft | 473 kts | 321° |
| 2026-05-04 00:01 | -9.53377 | 109.43757 | 39925 ft | 473 kts | 321° |
| 2026-05-04 00:01 | -9.48208 | 109.39631 | 39928 ft | 473 kts | 321° |
| 2026-05-04 00:02 | -9.43035 | 109.35504 | 39923 ft | 474 kts | 321° |
| 2026-05-04 00:02 | -9.37851 | 109.31371 | 39936 ft | 474 kts | 321° |
| 2026-05-04 00:03 | -9.32668 | 109.27238 | 39938 ft | 475 kts | 321° |
| 2026-05-04 00:03 | -9.27473 | 109.23099 | 39937 ft | 476 kts | 321° |
| 2026-05-04 00:04 | -9.22271 | 109.18956 | 39936 ft | 476 kts | 321° |
| 2026-05-04 00:04 | -9.17067 | 109.14812 | 39934 ft | 476 kts | 321° |
| 2026-05-04 00:05 | -9.11853 | 109.10662 | 39936 ft | 477 kts | 321° |
| 2026-05-04 00:05 | -9.06637 | 109.06513 | 39935 ft | 477 kts | 321° |
| 2026-05-04 00:06 | -9.01426 | 109.02368 | 39937 ft | 477 kts | 321° |
| 2026-05-04 00:06 | -8.96212 | 108.98223 | 39934 ft | 477 kts | 321° |
| 2026-05-04 00:07 | -8.91001 | 108.94081 | 39934 ft | 477 kts | 321° |
| 2026-05-04 00:07 | -8.85787 | 108.89940 | 39933 ft | 476 kts | 321° |
| 2026-05-04 00:08 | -8.80575 | 108.85801 | 39932 ft | 476 kts | 321° |
| 2026-05-04 00:08 | -8.75365 | 108.81665 | 39932 ft | 476 kts | 322° |
| 2026-05-04 00:09 | -8.70153 | 108.77529 | 39932 ft | 476 kts | 322° |
| 2026-05-04 00:09 | -8.64943 | 108.73397 | 39931 ft | 477 kts | 322° |
| 2026-05-04 00:10 | -8.59720 | 108.69255 | 39934 ft | 477 kts | 322° |
| 2026-05-04 00:10 | -8.54501 | 108.65117 | 39933 ft | 477 kts | 322° |
| 2026-05-04 00:11 | -8.49284 | 108.60984 | 39934 ft | 477 kts | 322° |
| 2026-05-04 00:11 | -8.44101 | 108.56878 | 39937 ft | 476 kts | 322° |
| 2026-05-04 00:12 | -8.38889 | 108.52752 | 39935 ft | 476 kts | 322° |
| 2026-05-04 00:12 | -8.33679 | 108.48627 | 39935 ft | 476 kts | 322° |
| 2026-05-04 00:13 | -8.28473 | 108.44508 | 39936 ft | 476 kts | 322° |
| 2026-05-04 00:13 | -8.23261 | 108.40386 | 39935 ft | 476 kts | 322° |
| 2026-05-04 00:14 | -8.18045 | 108.36261 | 39936 ft | 476 kts | 323° |
| 2026-05-04 00:14 | -8.12825 | 108.32135 | 39937 ft | 477 kts | 323° |
| 2026-05-04 00:15 | -8.07637 | 108.28035 | 39937 ft | 477 kts | 323° |
| 2026-05-04 00:15 | -8.02396 | 108.23936 | 39935 ft | 477 kts | 323° |
| 2026-05-04 00:16 | -7.97115 | 108.19871 | 39940 ft | 477 kts | 323° |
| 2026-05-04 00:16 | -7.91857 | 108.15783 | 39938 ft | 478 kts | 323° |
| 2026-05-04 00:17 | -7.86569 | 108.11698 | 39945 ft | 479 kts | 323° |
| 2026-05-04 00:17 | -7.81275 | 108.07596 | 39950 ft | 480 kts | 323° |
| 2026-05-04 00:18 | -7.75974 | 108.03497 | 39947 ft | 480 kts | 323° |
| 2026-05-04 00:18 | -7.70688 | 107.99408 | 39950 ft | 479 kts | 323° |
| 2026-05-04 00:19 | -7.65401 | 107.95321 | 39950 ft | 479 kts | 323° |
| 2026-05-04 00:19 | -7.60112 | 107.91232 | 39962 ft | 480 kts | 323° |
| 2026-05-04 00:20 | -7.54810 | 107.87135 | 39973 ft | 480 kts | 323° |
| 2026-05-04 00:20 | -7.49515 | 107.83045 | 39972 ft | 479 kts | 323° |
| 2026-05-04 00:21 | -7.44225 | 107.78960 | 39977 ft | 479 kts | 323° |
| 2026-05-04 00:21 | -7.38934 | 107.74876 | 39984 ft | 480 kts | 323° |
| 2026-05-04 00:22 | -7.33634 | 107.70785 | 39993 ft | 480 kts | 323° |
| 2026-05-04 00:22 | -7.28335 | 107.66697 | 39993 ft | 480 kts | 323° |
| 2026-05-04 00:23 | -7.23032 | 107.62607 | 39994 ft | 480 kts | 323° |
| 2026-05-04 00:23 | -7.17730 | 107.58519 | 39995 ft | 480 kts | 323° |
| 2026-05-04 00:24 | -7.12424 | 107.54430 | 39999 ft | 480 kts | 323° |
| 2026-05-04 00:24 | -7.07150 | 107.50312 | 40018 ft | 479 kts | 320° |
| 2026-05-04 00:25 | -7.02840 | 107.46796 | 39987 ft | 480 kts | 322° |
| 2026-05-04 00:25 | -6.97642 | 107.42584 | 39981 ft | 479 kts | 321° |
| 2026-05-04 00:26 | -6.92435 | 107.38322 | 39971 ft | 479 kts | 322° |
| 2026-05-04 00:26 | -6.87246 | 107.34108 | 39964 ft | 480 kts | 322° |
| 2026-05-04 00:27 | -6.82096 | 107.29906 | 39954 ft | 479 kts | 322° |
| 2026-05-04 00:27 | -6.76913 | 107.25691 | 39954 ft | 479 kts | 322° |
| 2026-05-04 00:28 | -6.71735 | 107.21475 | 39946 ft | 480 kts | 322° |
| 2026-05-04 00:28 | -6.66542 | 107.17251 | 39944 ft | 480 kts | 322° |
| 2026-05-04 00:29 | -6.61336 | 107.13016 | 39940 ft | 481 kts | 322° |
| 2026-05-04 00:29 | -6.56133 | 107.08785 | 39943 ft | 480 kts | 322° |
| 2026-05-04 00:30 | -6.50936 | 107.04559 | 39926 ft | 481 kts | 322° |
| 2026-05-04 00:30 | -6.45733 | 107.00331 | 39919 ft | 481 kts | 322° |
| 2026-05-04 00:31 | -6.40526 | 106.96100 | 39912 ft | 481 kts | 322° |
| 2026-05-04 00:31 | -6.35326 | 106.91876 | 39910 ft | 480 kts | 322° |
| 2026-05-04 00:32 | -6.30130 | 106.87657 | 39906 ft | 480 kts | 322° |
| 2026-05-04 00:32 | -6.24936 | 106.83440 | 39906 ft | 480 kts | 322° |
| 2026-05-04 00:33 | -6.17136 | 106.77109 | 39905 ft | 481 kts | 322° |
| 2026-05-04 00:34 | -6.11930 | 106.72886 | 39910 ft | 482 kts | 322° |
| 2026-05-04 00:34 | -6.06707 | 106.68649 | 39910 ft | 483 kts | 322° |
| 2026-05-04 00:35 | -6.01487 | 106.64416 | 39908 ft | 482 kts | 322° |
| 2026-05-04 00:35 | -5.96276 | 106.60191 | 39906 ft | 481 kts | 322° |
| 2026-05-04 00:36 | -5.91101 | 106.55997 | 39910 ft | 482 kts | 322° |
| 2026-05-04 00:36 | -5.85884 | 106.51769 | 39906 ft | 482 kts | 322° |
| 2026-05-04 00:37 | -5.80670 | 106.47546 | 39905 ft | 481 kts | 322° |
| 2026-05-04 00:37 | -5.75459 | 106.43324 | 39904 ft | 481 kts | 322° |
| 2026-05-04 00:38 | -5.70249 | 106.39107 | 39908 ft | 481 kts | 322° |
| 2026-05-04 00:38 | -5.65034 | 106.34885 | 39909 ft | 482 kts | 322° |
| 2026-05-04 00:39 | -5.59815 | 106.30661 | 39908 ft | 482 kts | 322° |
| 2026-05-04 00:39 | -5.54597 | 106.26438 | 39905 ft | 482 kts | 322° |
| 2026-05-04 00:40 | -5.49373 | 106.22213 | 39908 ft | 483 kts | 322° |
| 2026-05-04 00:40 | -5.44178 | 106.18012 | 39910 ft | 482 kts | 322° |
| 2026-05-04 00:41 | -5.38951 | 106.13785 | 39911 ft | 483 kts | 322° |
| 2026-05-04 00:41 | -5.33717 | 106.09553 | 39905 ft | 483 kts | 322° |
| 2026-05-04 00:42 | -5.28479 | 106.05320 | 39912 ft | 484 kts | 322° |
| 2026-05-04 00:42 | -5.23231 | 106.01080 | 39918 ft | 485 kts | 322° |
| 2026-05-04 00:43 | -5.17982 | 105.96840 | 39922 ft | 484 kts | 322° |
| 2026-05-04 00:43 | -5.12718 | 105.92636 | 39925 ft | 482 kts | 327° |
| 2026-05-04 00:44 | -5.06928 | 105.89262 | 39927 ft | 483 kts | 331° |
| 2026-05-04 00:44 | -5.01086 | 105.85935 | 39924 ft | 483 kts | 331° |
| 2026-05-04 00:45 | -4.95248 | 105.82608 | 39926 ft | 482 kts | 331° |
| 2026-05-04 00:45 | -4.89412 | 105.79285 | 39921 ft | 483 kts | 331° |
| 2026-05-04 00:46 | -4.83569 | 105.75957 | 39925 ft | 484 kts | 331° |
| 2026-05-04 00:46 | -4.77711 | 105.72623 | 39921 ft | 485 kts | 332° |
| 2026-05-04 00:47 | -4.71842 | 105.69282 | 39917 ft | 485 kts | 332° |
| 2026-05-04 00:47 | -4.65979 | 105.65945 | 39917 ft | 484 kts | 332° |
| 2026-05-04 00:48 | -4.60125 | 105.62614 | 39913 ft | 484 kts | 332° |
| 2026-05-04 00:48 | -4.54260 | 105.59278 | 39911 ft | 485 kts | 332° |
| 2026-05-04 00:49 | -4.48387 | 105.55937 | 39916 ft | 486 kts | 332° |
| 2026-05-04 00:49 | -4.42507 | 105.52594 | 39915 ft | 485 kts | 332° |
| 2026-05-04 00:50 | -4.36670 | 105.49275 | 39914 ft | 485 kts | 332° |
| 2026-05-04 00:50 | -4.30792 | 105.45934 | 39919 ft | 486 kts | 332° |
| 2026-05-04 00:51 | -4.24896 | 105.42583 | 39917 ft | 488 kts | 332° |
| 2026-05-04 00:51 | -4.19000 | 105.39233 | 39917 ft | 487 kts | 332° |
| 2026-05-04 00:52 | -4.13106 | 105.35884 | 39916 ft | 487 kts | 332° |
| 2026-05-04 00:52 | -4.07218 | 105.32539 | 39915 ft | 487 kts | 332° |
| 2026-05-04 00:53 | -4.01323 | 105.29191 | 39916 ft | 487 kts | 332° |
| 2026-05-04 00:53 | -3.95436 | 105.25848 | 39920 ft | 486 kts | 332° |
| 2026-05-04 00:54 | -3.89556 | 105.22513 | 39924 ft | 485 kts | 332° |
| 2026-05-04 00:54 | -3.83661 | 105.19205 | 39921 ft | 485 kts | 332° |
| 2026-05-04 00:55 | -3.77790 | 105.15893 | 39916 ft | 484 kts | 332° |
| 2026-05-04 00:55 | -3.71926 | 105.12595 | 39917 ft | 484 kts | 332° |
| 2026-05-04 00:56 | -3.66052 | 105.09287 | 39921 ft | 485 kts | 332° |
| 2026-05-04 00:56 | -3.60160 | 105.05971 | 39926 ft | 486 kts | 332° |
| 2026-05-04 00:57 | -3.54259 | 105.02651 | 39931 ft | 487 kts | 332° |
| 2026-05-04 00:57 | -3.48361 | 104.99332 | 39924 ft | 486 kts | 332° |
| 2026-05-04 00:58 | -3.42472 | 104.96019 | 39928 ft | 485 kts | 332° |
| 2026-05-04 00:58 | -3.36586 | 104.92709 | 39929 ft | 485 kts | 332° |
| 2026-05-04 00:59 | -3.30695 | 104.89396 | 39932 ft | 486 kts | 332° |
| 2026-05-04 00:59 | -3.24842 | 104.86105 | 39932 ft | 486 kts | 332° |
| 2026-05-04 01:00 | -3.18951 | 104.82792 | 39932 ft | 485 kts | 332° |
| 2026-05-04 01:00 | -3.13083 | 104.79494 | 39926 ft | 483 kts | 332° |
| 2026-05-04 01:01 | -3.07231 | 104.76204 | 39918 ft | 482 kts | 332° |
| 2026-05-04 01:01 | -3.01376 | 104.72914 | 39919 ft | 483 kts | 332° |
| 2026-05-04 01:02 | -2.95515 | 104.69620 | 39915 ft | 483 kts | 332° |
| 2026-05-04 01:02 | -2.89646 | 104.66339 | 39916 ft | 482 kts | 335° |
| 2026-05-04 01:02 | -2.86533 | 104.65131 | 39931 ft | 480 kts | 347° |
| 2026-05-04 01:03 | -2.83272 | 104.64453 | 39918 ft | 479 kts | 350° |
| 2026-05-04 01:03 | -2.76718 | 104.63209 | 39928 ft | 479 kts | 351° |
| 2026-05-04 01:04 | -2.70167 | 104.61974 | 39935 ft | 479 kts | 350° |
| 2026-05-04 01:04 | -2.63628 | 104.60735 | 39938 ft | 478 kts | 351° |
| 2026-05-04 01:05 | -2.57091 | 104.59502 | 39944 ft | 478 kts | 351° |
| 2026-05-04 01:05 | -2.50563 | 104.58267 | 39946 ft | 477 kts | 351° |
| 2026-05-04 01:06 | -2.44075 | 104.57041 | 39940 ft | 478 kts | 351° |
| 2026-05-04 01:06 | -2.37540 | 104.55806 | 39940 ft | 479 kts | 351° |
| 2026-05-04 01:07 | -2.30987 | 104.54569 | 39942 ft | 480 kts | 351° |
| 2026-05-04 01:07 | -2.24422 | 104.53328 | 39944 ft | 480 kts | 351° |
| 2026-05-04 01:08 | -2.17860 | 104.52089 | 39937 ft | 480 kts | 351° |
| 2026-05-04 01:08 | -2.11300 | 104.50850 | 39937 ft | 480 kts | 350° |
| 2026-05-04 01:09 | -2.04738 | 104.49611 | 39941 ft | 480 kts | 351° |
| 2026-05-04 01:09 | -1.98163 | 104.48369 | 39941 ft | 481 kts | 350° |
| 2026-05-04 01:10 | -1.91578 | 104.47126 | 39942 ft | 482 kts | 350° |
| 2026-05-04 01:10 | -1.84999 | 104.45883 | 39937 ft | 480 kts | 350° |
| 2026-05-04 01:11 | -1.78436 | 104.44644 | 39934 ft | 479 kts | 350° |
| 2026-05-04 01:11 | -1.71882 | 104.43407 | 39931 ft | 479 kts | 350° |
| 2026-05-04 01:12 | -1.65325 | 104.42169 | 39932 ft | 480 kts | 350° |
| 2026-05-04 01:12 | -1.58769 | 104.40932 | 39930 ft | 479 kts | 350° |
| 2026-05-04 01:13 | -1.53326 | 104.39904 | 39931 ft | 479 kts | 350° |
| 2026-05-04 01:13 | -1.46764 | 104.38666 | 39937 ft | 480 kts | 350° |
| 2026-05-04 01:14 | -1.40190 | 104.37425 | 39934 ft | 481 kts | 350° |
| 2026-05-04 01:14 | -1.33606 | 104.36183 | 39940 ft | 481 kts | 350° |
| 2026-05-04 01:15 | -1.27033 | 104.34942 | 39931 ft | 480 kts | 350° |
| 2026-05-04 01:15 | -1.20462 | 104.33702 | 39936 ft | 481 kts | 350° |
| 2026-05-04 01:16 | -1.13881 | 104.32461 | 39938 ft | 482 kts | 350° |
| 2026-05-04 01:16 | -1.07283 | 104.31216 | 39937 ft | 483 kts | 350° |
| 2026-05-04 01:17 | -1.00672 | 104.29968 | 39941 ft | 484 kts | 350° |
| 2026-05-04 01:17 | -0.94063 | 104.28717 | 39940 ft | 483 kts | 350° |
| 2026-05-04 01:18 | -0.87479 | 104.27402 | 39937 ft | 482 kts | 349° |
| 2026-05-04 01:18 | -0.80884 | 104.26273 | 39938 ft | 480 kts | 351° |
| 2026-05-04 01:19 | -0.74329 | 104.24982 | 39943 ft | 480 kts | 350° |
| 2026-05-04 01:19 | -0.67741 | 104.23762 | 39942 ft | 483 kts | 350° |
| 2026-05-04 01:20 | -0.61135 | 104.22508 | 39943 ft | 483 kts | 350° |
| 2026-05-04 01:20 | -0.57859 | 104.21884 | 39331 ft | 480 kts | 350° |
| 2026-05-04 01:20 | -0.54558 | 104.21264 | 38491 ft | 483 kts | 350° |
| 2026-05-04 01:20 | -0.51316 | 104.20619 | 37823 ft | 480 kts | 349° |
| 2026-05-04 01:21 | -0.48011 | 104.19943 | 37116 ft | 477 kts | 349° |
| 2026-05-04 01:21 | -0.44758 | 104.19294 | 36390 ft | 477 kts | 350° |
| 2026-05-04 01:21 | -0.41495 | 104.18658 | 35656 ft | 479 kts | 350° |
| 2026-05-04 01:21 | -0.38203 | 104.18008 | 34891 ft | 484 kts | 350° |
| 2026-05-04 01:22 | -0.34889 | 104.17345 | 34086 ft | 488 kts | 350° |
| 2026-05-04 01:22 | -0.31554 | 104.16680 | 33246 ft | 487 kts | 350° |
| 2026-05-04 01:22 | -0.28241 | 104.16024 | 32463 ft | 483 kts | 350° |
| 2026-05-04 01:22 | -0.24996 | 104.15382 | 31687 ft | 480 kts | 350° |
| 2026-05-04 01:23 | -0.21731 | 104.14733 | 30917 ft | 477 kts | 350° |
| 2026-05-04 01:23 | -0.18488 | 104.14089 | 30161 ft | 474 kts | 350° |
| 2026-05-04 01:23 | -0.15259 | 104.13448 | 29365 ft | 471 kts | 350° |
| 2026-05-04 01:23 | -0.12064 | 104.12814 | 28612 ft | 466 kts | 350° |
| 2026-05-04 01:24 | -0.08900 | 104.12186 | 27871 ft | 461 kts | 350° |
| 2026-05-04 01:24 | -0.05766 | 104.11564 | 27137 ft | 457 kts | 350° |
| 2026-05-04 01:24 | -0.02660 | 104.10947 | 26417 ft | 453 kts | 350° |
| 2026-05-04 01:24 | 0.00417 | 104.10337 | 25703 ft | 449 kts | 350° |
| 2026-05-04 01:25 | 0.03472 | 104.09731 | 24997 ft | 446 kts | 350° |
| 2026-05-04 01:25 | 0.06506 | 104.09128 | 24286 ft | 442 kts | 350° |
| 2026-05-04 01:25 | 0.09511 | 104.08532 | 23582 ft | 437 kts | 350° |
| 2026-05-04 01:25 | 0.12367 | 104.07963 | 22859 ft | 401 kts | 350° |
| 2026-05-04 01:26 | 0.14992 | 104.07440 | 22231 ft | 370 kts | 351° |
| 2026-05-04 01:26 | 0.17465 | 104.06952 | 21682 ft | 360 kts | 351° |
| 2026-05-04 01:26 | 0.19895 | 104.06472 | 21405 ft | 351 kts | 351° |
| 2026-05-04 01:26 | 0.22262 | 104.06002 | 21287 ft | 345 kts | 351° |
| 2026-05-04 01:27 | 0.24636 | 104.05531 | 21185 ft | 352 kts | 351° |
| 2026-05-04 01:27 | 0.27054 | 104.05052 | 20996 ft | 356 kts | 351° |
| 2026-05-04 01:27 | 0.29457 | 104.04574 | 20706 ft | 349 kts | 351° |
| 2026-05-04 01:27 | 0.31851 | 104.04099 | 20216 ft | 352 kts | 351° |
| 2026-05-04 01:28 | 0.34250 | 104.03624 | 19762 ft | 350 kts | 351° |
| 2026-05-04 01:28 | 0.36627 | 104.03153 | 19300 ft | 347 kts | 351° |
| 2026-05-04 01:28 | 0.38985 | 104.02684 | 18845 ft | 344 kts | 351° |
| 2026-05-04 01:28 | 0.41325 | 104.02221 | 18402 ft | 341 kts | 351° |
| 2026-05-04 01:29 | 0.43646 | 104.01761 | 17922 ft | 339 kts | 351° |
| 2026-05-04 01:29 | 0.45940 | 104.01306 | 17474 ft | 335 kts | 350° |
| 2026-05-04 01:29 | 0.48213 | 104.00855 | 17042 ft | 332 kts | 350° |
| 2026-05-04 01:29 | 0.50469 | 104.00408 | 16600 ft | 329 kts | 350° |
| 2026-05-04 01:30 | 0.52710 | 103.99964 | 16177 ft | 327 kts | 350° |
| 2026-05-04 01:30 | 0.54938 | 103.99522 | 15746 ft | 326 kts | 350° |
| 2026-05-04 01:30 | 0.57154 | 103.99083 | 15321 ft | 324 kts | 350° |
| 2026-05-04 01:30 | 0.59359 | 103.98645 | 14888 ft | 322 kts | 349° |
| 2026-05-04 01:31 | 0.61552 | 103.98210 | 14475 ft | 320 kts | 349° |
| 2026-05-04 01:31 | 0.63729 | 103.97778 | 14055 ft | 317 kts | 349° |
| 2026-05-04 01:31 | 0.65818 | 103.97363 | 13627 ft | 295 kts | 349° |
| 2026-05-04 01:31 | 0.67769 | 103.96976 | 13231 ft | 279 kts | 349° |
| 2026-05-04 01:32 | 0.69666 | 103.96601 | 12871 ft | 278 kts | 349° |
| 2026-05-04 01:32 | 0.71561 | 103.96226 | 12560 ft | 275 kts | 349° |
| 2026-05-04 01:32 | 0.73434 | 103.95853 | 12219 ft | 274 kts | 349° |
| 2026-05-04 01:32 | 0.75286 | 103.95458 | 11874 ft | 272 kts | 348° |
| 2026-05-04 01:33 | 0.77123 | 103.95052 | 11524 ft | 269 kts | 348° |
| 2026-05-04 01:33 | 0.78951 | 103.94657 | 11173 ft | 268 kts | 348° |
| 2026-05-04 01:33 | 0.80770 | 103.94270 | 10824 ft | 267 kts | 348° |
| 2026-05-04 01:33 | 0.82580 | 103.93883 | 10476 ft | 265 kts | 348° |
| 2026-05-04 01:34 | 0.84381 | 103.93496 | 10136 ft | 264 kts | 348° |
| 2026-05-04 01:34 | 0.86170 | 103.93112 | 9781 ft | 263 kts | 348° |
| 2026-05-04 01:34 | 0.87951 | 103.92730 | 9416 ft | 260 kts | 348° |
| 2026-05-04 01:34 | 0.89712 | 103.92352 | 9077 ft | 258 kts | 348° |
| 2026-05-04 01:35 | 0.91461 | 103.91977 | 8735 ft | 256 kts | 348° |
| 2026-05-04 01:35 | 0.93199 | 103.91606 | 8412 ft | 254 kts | 348° |
| 2026-05-04 01:35 | 0.94928 | 103.91237 | 8075 ft | 253 kts | 348° |
| 2026-05-04 01:35 | 0.96641 | 103.90871 | 7732 ft | 248 kts | 347° |
| 2026-05-04 01:36 | 0.98280 | 103.90521 | 7443 ft | 235 kts | 347° |
| 2026-05-04 01:36 | 0.99850 | 103.90186 | 7138 ft | 227 kts | 347° |
| 2026-05-04 01:36 | 1.01366 | 103.89861 | 6835 ft | 219 kts | 347° |
| 2026-05-04 01:36 | 1.02837 | 103.89547 | 6549 ft | 214 kts | 347° |
| 2026-05-04 01:37 | 1.04282 | 103.89239 | 6270 ft | 212 kts | 347° |
| 2026-05-04 01:37 | 1.05721 | 103.88932 | 5985 ft | 211 kts | 347° |
| 2026-05-04 01:37 | 1.07157 | 103.88640 | 5703 ft | 210 kts | 348° |
| 2026-05-04 01:37 | 1.08597 | 103.88384 | 5427 ft | 210 kts | 354° |
| 2026-05-04 01:38 | 1.10054 | 103.88407 | 5139 ft | 209 kts | 4° |
| 2026-05-04 01:38 | 1.11498 | 103.88540 | 4888 ft | 208 kts | 5° |
| 2026-05-04 01:38 | 1.12941 | 103.88662 | 4641 ft | 208 kts | 7° |
| 2026-05-04 01:38 | 1.14318 | 103.89038 | 4352 ft | 203 kts | 20° |
| 2026-05-04 01:39 | 1.15600 | 103.89561 | 4095 ft | 196 kts | 22° |
| 2026-05-04 01:39 | 1.16842 | 103.90087 | 3844 ft | 192 kts | 22° |
| 2026-05-04 01:39 | 1.18068 | 103.90606 | 3612 ft | 191 kts | 22° |
| 2026-05-04 01:39 | 1.19288 | 103.91124 | 3371 ft | 190 kts | 22° |
| 2026-05-04 01:40 | 1.20502 | 103.91640 | 3154 ft | 190 kts | 22° |
| 2026-05-04 01:40 | 1.21716 | 103.92154 | 2920 ft | 189 kts | 22° |
| 2026-05-04 01:40 | 1.22922 | 103.92665 | 2688 ft | 188 kts | 22° |
| 2026-05-04 01:40 | 1.24125 | 103.93175 | 2456 ft | 187 kts | 22° |
| 2026-05-04 01:41 | 1.25322 | 103.93684 | 2242 ft | 187 kts | 23° |
| 2026-05-04 01:41 | 1.26480 | 103.94175 | 2017 ft | 178 kts | 23° |
| 2026-05-04 01:41 | 1.27590 | 103.94645 | 1796 ft | 168 kts | 23° |
| 2026-05-04 01:41 | 1.28685 | 103.95110 | 1403 ft | 177 kts | 23° |
| 2026-05-04 01:42 | 1.29820 | 103.95592 | 1101 ft | 173 kts | 23° |
| 2026-05-04 01:42 | 1.30892 | 103.96047 | 889 ft | 161 kts | 23° |
| 2026-05-04 01:42 | 1.31885 | 103.96468 | 690 ft | 152 kts | 23° |
| 2026-05-04 01:42 | 1.32849 | 103.96874 | 517 ft | 149 kts | 20° |
| 2026-05-04 01:43 | 1.33812 | 103.97282 | 312 ft | 150 kts | 24° |
| 2026-05-04 01:43 | 1.34770 | 103.97695 | 106 ft | 149 kts | 22° |
| 2026-05-04 01:43 | 1.35694 | 103.98084 | 36 ft | 132 kts | 22° |
| 2026-05-04 01:43 | 1.36318 | 103.98345 | 31 ft | 81 kts | 23° |
| 2026-05-04 01:44 | 1.36676 | 103.98534 | 31 ft | 48 kts | 46° |
| 2026-05-04 01:44 | 1.36817 | 103.98716 | 30 ft | 15 kts | 54° |
| 2026-05-04 01:44 | 1.36842 | 103.98780 | 30 ft | 9 kts | 87° |
| 2026-05-04 01:44 | 1.36815 | 103.98836 | 30 ft | 10 kts | 136° |
| 2026-05-04 01:45 | 1.36789 | 103.98847 | 30 ft | 0 kts | 187° |
| 2026-05-04 01:45 | 1.36764 | 103.98836 | 30 ft | 10 kts | 204° |
| 2026-05-04 01:45 | 1.36528 | 103.98811 | 31 ft | 16 kts | 181° |
| 2026-05-04 01:46 | 1.36460 | 103.98816 | 31 ft | 9 kts | 152° |
| 2026-05-04 01:46 | 1.36427 | 103.98870 | 31 ft | 8 kts | 111° |
| 2026-05-04 01:46 | 1.36417 | 103.98898 | 30 ft | 2 kts | 111° |
| 2026-05-04 01:46 | 1.36414 | 103.98904 | 30 ft | 0 kts | 111° |